Time;durP1;ratioP1;P1;durP2;ratioP2;P2;SDS_P1;SDS_P2;PMS_P1;PMS_P2;Temp;Humidity;BMP_temperature;BMP_pressure;BME280_temperature;BME280_humidity;BME280_pressure;Samples;Min_cycle;Max_cycle;Signal;HPM_P1;HPM_P2
2022/11/26 00:01:42;;;;;;;;;;;;;;;21.49;51.99;101684.47;5108801;27;5430;-58
2022/11/26 00:04:09;;;;;;;;;;;;;;;21.48;52.10;101685.84;5111693;27;5369;-58
2022/11/26 00:06:38;;;;;;;;;;;;;;;21.48;51.78;101688.72;5116125;27;5417;-58
2022/11/26 00:09:05;;;;;;;;;;;;;;;21.49;51.74;101679.44;5101171;27;4115;-58
2022/11/26 00:11:32;;;;;;;;;;;;;;;21.47;51.77;101690.84;5097267;27;4564;-57
2022/11/26 00:13:58;;;;;;;;;;;;;;;21.47;52.18;101693.00;5115764;27;4200;-57
2022/11/26 00:16:24;;;;;;;;;;;;;;;21.45;52.02;101698.66;5110351;27;5432;-58
2022/11/26 00:18:51;;;;;;;;;;;;;;;21.46;51.85;101691.50;5099117;27;5218;-58
2022/11/26 00:21:19;;;;;;;;;;;;;;;21.46;51.83;101691.50;5106848;27;5276;-57
2022/11/26 00:23:46;;;;;;;;;;;;;;;21.43;51.83;101699.28;5115434;27;4124;-57
2022/11/26 00:26:13;;;;;;;;;;;;;;;21.44;51.96;101702.91;5111383;27;4250;-57
2022/11/26 00:28:39;;;;;;;;;;;;;;;21.43;51.94;101704.28;5115299;27;4123;-58
2022/11/26 00:31:06;;;;;;;;;;;;;;;21.42;51.87;101700.66;5092815;27;4074;-58
2022/11/26 00:33:33;;;;;;;;;;;;;;;21.43;52.04;101704.28;5111022;27;6063;-58
2022/11/26 00:36:18;;;;;;;;;;;;;;;21.42;51.82;101702.81;5111344;27;4518;-57
2022/11/26 00:38:45;;;;;;;;;;;;;;;21.39;52.13;101704.78;5096512;27;4039;-58
2022/11/26 00:41:16;;;;;;;;;;;;;;;21.41;52.09;101712.81;5115236;27;4299;-58
2022/11/26 00:43:42;;;;;;;;;;;;;;;21.40;51.90;101711.31;5098355;27;4504;-57
2022/11/26 00:46:13;;;;;;;;;;;;;;;21.40;51.73;101725.72;5097064;27;4193;-58
2022/11/26 00:48:39;;;;;;;;;;;;;;;21.39;51.73;101727.09;5106723;27;4325;-58
2022/11/26 00:51:07;;;;;;;;;;;;;;;21.38;51.82;101728.47;5096667;27;5275;-58
2022/11/26 00:53:33;;;;;;;;;;;;;;;21.37;51.64;101724.09;5068615;27;4130;-58
2022/11/26 00:55:59;;;;;;;;;;;;;;;21.36;51.82;101734.88;5105144;27;5246;-57
2022/11/26 00:58:27;;;;;;;;;;;;;;;21.33;52.00;101731.13;5110604;27;5188;-58
2022/11/26 01:00:53;;;;;;;;;;;;;;;21.34;51.70;101744.16;5097615;27;5254;-58
2022/11/26 01:03:20;;;;;;;;;;;;;;;21.36;51.91;101751.41;5108090;27;5219;-58
2022/11/26 01:05:50;;;;;;;;;;;;;;;21.33;51.79;101736.91;5098031;27;5069;-57
2022/11/26 01:08:30;;;;;;;;;;;;;;;21.33;51.66;101748.41;5088724;27;4138;-58
2022/11/26 01:10:57;;;;;;;;;;;;;;;21.30;51.84;101743.94;5102928;27;4197;-58
2022/11/26 01:13:23;;;;;;;;;;;;;;;21.31;51.71;101745.41;5106901;27;4115;-57
2022/11/26 01:15:49;;;;;;;;;;;;;;;21.30;51.85;101755.47;5110258;27;4239;-58
2022/11/26 01:18:17;;;;;;;;;;;;;;;21.30;51.71;101757.56;5113614;27;5145;-57
2022/11/26 01:20:44;;;;;;;;;;;;;;;21.29;51.72;101759.72;5110015;27;4166;-58
2022/11/26 01:23:11;;;;;;;;;;;;;;;21.30;51.52;101761.22;5118160;27;5260;-58
2022/11/26 01:25:37;;;;;;;;;;;;;;;21.30;51.86;101757.56;5115335;27;4097;-57
2022/11/26 01:28:03;;;;;;;;;;;;;;;21.28;51.69;101769.75;5121899;27;4029;-57
2022/11/26 01:30:30;;;;;;;;;;;;;;;21.29;51.67;101776.25;5107003;27;4112;-58
2022/11/26 01:32:56;;;;;;;;;;;;;;;21.29;51.86;101767.59;5097680;27;4161;-56
2022/11/26 01:35:23;;;;;;;;;;;;;;;21.28;51.64;101766.88;5098056;27;4120;-56
2022/11/26 01:37:49;;;;;;;;;;;;;;;21.28;51.71;101771.84;5093515;27;5334;-58
2022/11/26 01:40:24;;;;;;;;;;;;;;;21.26;51.73;101766.75;5107159;27;6324;-57
2022/11/26 01:43:17;;;;;;;;;;;;;;;21.25;51.65;101776.75;5103327;27;4125;-58
2022/11/26 01:45:43;;;;;;;;;;;;;;;21.25;51.65;101771.00;5086063;27;5465;-57
2022/11/26 01:48:23;;;;;;;;;;;;;;;21.24;51.73;101775.28;5104304;27;4155;-58
2022/11/26 01:50:54;;;;;;;;;;;;;;;21.26;51.81;101778.28;5100863;27;4122;-57
2022/11/26 01:53:26;;;;;;;;;;;;;;;21.25;51.83;101776.00;5103321;27;4015;-58
2022/11/26 01:55:57;;;;;;;;;;;;;;;21.24;51.34;101769.50;5110182;27;4129;-57
2022/11/26 01:58:26;;;;;;;;;;;;;;;21.24;51.61;101775.28;5092881;27;4179;-58
2022/11/26 02:00:52;;;;;;;;;;;;;;;21.24;51.91;101775.28;5094355;27;4170;-58
2022/11/26 02:03:21;;;;;;;;;;;;;;;21.23;51.76;101782.41;5106463;27;4157;-58
2022/11/26 02:05:50;;;;;;;;;;;;;;;21.22;51.64;101789.56;5109205;27;4149;-56
2022/11/26 02:08:16;;;;;;;;;;;;;;;21.22;51.85;101792.44;5109358;27;5613;-57
2022/11/26 02:10:43;;;;;;;;;;;;;;;21.20;51.95;101798.06;5107159;27;4136;-58
2022/11/26 02:13:09;;;;;;;;;;;;;;;21.22;51.68;101798.19;5106163;27;4077;-58
2022/11/26 02:15:56;;;;;;;;;;;;;;;21.22;51.91;101806.09;5101753;27;5209;-58
2022/11/26 02:18:22;;;;;;;;;;;;;;;21.20;52.00;101803.84;5094559;27;4270;-58
2022/11/26 02:20:50;;;;;;;;;;;;;;;21.19;51.77;101813.88;5089038;27;4146;-58
2022/11/26 02:23:22;;;;;;;;;;;;;;;21.20;51.77;101812.47;5081341;28;4236;-57
2022/11/26 02:25:57;;;;;;;;;;;;;;;21.20;51.77;101817.50;5093929;28;4086;-58
2022/11/26 02:28:32;;;;;;;;;;;;;;;21.20;51.74;101823.25;5074696;28;4110;-58
2022/11/26 02:30:58;;;;;;;;;;;;;;;21.19;51.82;101825.38;5076019;28;4166;-58
2022/11/26 02:33:43;;;;;;;;;;;;;;;21.18;51.75;101828.91;5098242;27;4066;-58
2022/11/26 02:36:23;;;;;;;;;;;;;;;21.18;51.62;101821.00;5104333;28;3950;-58
2022/11/26 02:38:50;;;;;;;;;;;;;;;21.17;51.64;101822.38;5093942;27;4126;-58
2022/11/26 02:41:16;;;;;;;;;;;;;;;21.16;51.65;101823.75;5104051;27;5159;-58
2022/11/26 02:43:42;;;;;;;;;;;;;;;21.16;51.81;101823.75;5100310;28;3946;-58
2022/11/26 02:46:10;;;;;;;;;;;;;;;21.16;51.57;101832.41;5099469;28;4306;-58
2022/11/26 02:48:41;;;;;;;;;;;;;;;21.16;51.96;101823.75;5079275;28;4095;-57
2022/11/26 02:51:09;;;;;;;;;;;;;;;21.13;51.94;101817.13;5105130;28;4135;-57
2022/11/26 02:53:35;;;;;;;;;;;;;;;21.16;51.64;101823.75;5086601;28;4240;-58
2022/11/26 02:56:05;;;;;;;;;;;;;;;21.13;51.90;101819.28;5105908;28;4189;-58
2022/11/26 02:58:32;;;;;;;;;;;;;;;21.12;52.00;101826.41;5092026;28;4123;-57
2022/11/26 03:00:58;;;;;;;;;;;;;;;21.14;51.60;101829.41;5085174;28;4408;-58
2022/11/26 03:03:28;;;;;;;;;;;;;;;21.13;51.63;101834.41;5085665;28;4292;-58
2022/11/26 03:05:56;;;;;;;;;;;;;;;21.13;51.67;101836.53;5087964;27;4112;-58
2022/11/26 03:08:22;;;;;;;;;;;;;;;21.13;51.87;101830.78;5108462;27;3893;-58
2022/11/26 03:10:49;;;;;;;;;;;;;;;21.11;51.67;101842.19;5081274;27;4080;-58
2022/11/26 03:13:15;;;;;;;;;;;;;;;21.11;51.85;101840.06;5104442;27;4142;-58
2022/11/26 03:15:42;;;;;;;;;;;;;;;21.12;51.50;101835.06;5098297;27;4062;-58
2022/11/26 03:18:08;;;;;;;;;;;;;;;21.12;51.77;101837.94;5106264;27;4182;-57
2022/11/26 03:20:34;;;;;;;;;;;;;;;21.10;51.84;101840.69;5100525;27;4418;-58
2022/11/26 03:23:01;;;;;;;;;;;;;;;21.10;51.75;101857.97;5107921;27;4169;-58
2022/11/26 03:25:27;;;;;;;;;;;;;;;21.10;51.80;101855.09;5108882;27;4280;-58
2022/11/26 03:27:53;;;;;;;;;;;;;;;21.06;51.67;101858.47;5112014;27;4098;-57
2022/11/26 03:30:20;;;;;;;;;;;;;;;21.07;51.78;101865.75;5103616;27;4172;-58
2022/11/26 03:32:46;;;;;;;;;;;;;;;21.07;51.57;101859.22;5112106;27;5140;-57
2022/11/26 03:35:12;;;;;;;;;;;;;;;21.07;51.73;101868.63;5108970;27;4003;-58
2022/11/26 03:37:39;;;;;;;;;;;;;;;21.07;51.95;101859.22;5107513;27;5279;-58
2022/11/26 03:40:05;;;;;;;;;;;;;;;21.05;51.48;101867.75;5103622;27;4190;-58
2022/11/26 03:42:32;;;;;;;;;;;;;;;21.05;51.72;101865.63;5101954;27;4167;-58
2022/11/26 03:44:58;;;;;;;;;;;;;;;21.07;51.75;101870.75;5102628;27;4158;-58
2022/11/26 03:47:26;;;;;;;;;;;;;;;21.06;51.89;101875.00;5116235;27;4181;-58
2022/11/26 03:49:52;;;;;;;;;;;;;;;21.07;51.71;101876.50;5116362;27;4123;-57
2022/11/26 03:52:18;;;;;;;;;;;;;;;21.08;51.81;101881.63;5096075;27;4419;-59
2022/11/26 03:54:45;;;;;;;;;;;;;;;21.10;51.99;101872.38;5081692;27;5385;-58
2022/11/26 03:57:11;;;;;;;;;;;;;;;21.12;52.25;101881.88;5101665;27;4250;-58
2022/11/26 03:59:37;;;;;;;;;;;;;;;21.15;51.67;101885.63;5097690;27;5205;-58
2022/11/26 04:02:05;;;;;;;;;;;;;;;21.18;51.73;101889.38;5109667;27;4139;-58
2022/11/26 04:04:31;;;;;;;;;;;;;;;21.18;52.00;101893.00;5088333;27;4153;-58
2022/11/26 04:06:57;;;;;;;;;;;;;;;21.18;51.64;101895.88;5106766;27;4007;-58
2022/11/26 04:09:23;;;;;;;;;;;;;;;21.19;51.89;101899.50;5099036;27;4175;-58
2022/11/26 04:11:50;;;;;;;;;;;;;;;21.19;52.12;101899.50;5104634;27;3954;-58
2022/11/26 04:14:16;;;;;;;;;;;;;;;21.21;51.86;101903.28;5117930;27;4083;-58
2022/11/26 04:16:42;;;;;;;;;;;;;;;21.20;52.22;101901.03;5106189;27;3892;-58
2022/11/26 04:19:09;;;;;;;;;;;;;;;21.21;52.00;101908.28;5089859;27;3908;-58
2022/11/26 04:21:35;;;;;;;;;;;;;;;21.21;52.07;101909.06;5079467;27;4795;-57
2022/11/26 04:24:02;;;;;;;;;;;;;;;21.21;52.05;101909.06;5099049;27;3998;-57
2022/11/26 04:26:28;;;;;;;;;;;;;;;21.22;51.99;101913.41;5094550;28;4139;-58
2022/11/26 04:28:55;;;;;;;;;;;;;;;21.23;51.72;101914.91;5099140;27;4166;-57
2022/11/26 04:31:21;;;;;;;;;;;;;;;21.23;51.85;101923.53;5099685;27;5385;-58
2022/11/26 04:33:47;;;;;;;;;;;;;;;21.24;52.24;101924.31;5099006;27;4114;-58
2022/11/26 04:36:14;;;;;;;;;;;;;;;21.25;52.30;101932.31;5093182;27;4296;-58
2022/11/26 04:38:40;;;;;;;;;;;;;;;21.25;52.32;101932.31;5092412;28;4130;-58
2022/11/26 04:41:06;;;;;;;;;;;;;;;21.27;52.60;101935.31;5093466;27;4052;-58
2022/11/26 04:43:33;;;;;;;;;;;;;;;21.26;52.30;101939.59;5093187;28;4154;-58
2022/11/26 04:45:59;;;;;;;;;;;;;;;21.26;52.36;101945.34;5104920;27;4285;-58
2022/11/26 04:48:25;;;;;;;;;;;;;;;21.28;52.38;101959.88;5103430;27;4101;-58
2022/11/26 04:50:52;;;;;;;;;;;;;;;21.27;52.61;101946.09;5100211;27;4135;-58
2022/11/26 04:53:20;;;;;;;;;;;;;;;21.28;52.37;101954.13;5098124;27;4428;-59
2022/11/26 04:55:49;;;;;;;;;;;;;;;21.29;52.26;101964.25;5102962;28;4231;-58
2022/11/26 04:58:16;;;;;;;;;;;;;;;21.29;52.40;101967.13;5098274;28;4163;-58
2022/11/26 05:00:42;;;;;;;;;;;;;;;21.29;52.67;101969.28;5098869;27;4092;-58
2022/11/26 05:03:15;;;;;;;;;;;;;;;21.30;52.93;101965.78;5111150;27;4078;-57
2022/11/26 05:05:41;;;;;;;;;;;;;;;21.30;52.66;101973.63;5104468;27;4009;-58
2022/11/26 05:08:08;;;;;;;;;;;;;;;21.31;53.11;101969.41;5103201;27;4258;-58
2022/11/26 05:10:34;;;;;;;;;;;;;;;21.31;53.05;101975.91;5099195;27;5279;-58
2022/11/26 05:13:00;;;;;;;;;;;;;;;21.30;53.02;101983.06;5100785;28;5277;-57
2022/11/26 05:15:27;;;;;;;;;;;;;;;21.30;52.74;101985.94;5092808;27;5206;-57
2022/11/26 05:17:53;;;;;;;;;;;;;;;21.30;53.10;101990.94;5090666;27;4174;-58
2022/11/26 05:20:19;;;;;;;;;;;;;;;21.30;53.04;101997.47;5099964;27;4150;-58
2022/11/26 05:22:46;;;;;;;;;;;;;;;21.30;52.92;101994.59;5089199;27;4174;-58
2022/11/26 05:25:12;;;;;;;;;;;;;;;21.30;53.13;101999.56;5103218;27;5194;-58
2022/11/26 05:27:38;;;;;;;;;;;;;;;21.31;53.05;102006.84;5080649;28;4207;-58
2022/11/26 05:30:06;;;;;;;;;;;;;;;21.30;52.97;102011.88;5089184;28;4058;-58
2022/11/26 05:32:32;;;;;;;;;;;;;;;21.32;53.35;102011.22;5103450;27;4182;-58
2022/11/26 05:34:58;;;;;;;;;;;;;;;21.32;53.04;102017.72;5110605;27;4162;-58
2022/11/26 05:37:25;;;;;;;;;;;;;;;21.34;53.06;102017.13;5102406;27;4402;-58
2022/11/26 05:39:52;;;;;;;;;;;;;;;21.34;53.02;102006.34;5100305;27;3978;-58
2022/11/26 05:42:18;;;;;;;;;;;;;;;21.36;53.36;102013.63;5100090;27;4257;-61
2022/11/26 05:44:44;;;;;;;;;;;;;;;21.34;53.04;102020.75;5110971;27;5344;-58
2022/11/26 05:47:11;;;;;;;;;;;;;;;21.33;53.21;102013.47;5112935;27;4120;-57
2022/11/26 05:49:37;;;;;;;;;;;;;;;21.33;53.24;102022.13;5108433;27;4126;-57
2022/11/26 05:52:03;;;;;;;;;;;;;;;21.34;53.31;102025.75;5108030;27;4013;-58
2022/11/26 05:54:30;;;;;;;;;;;;;;;21.32;53.05;102029.25;5114238;27;5400;-57
2022/11/26 05:56:57;;;;;;;;;;;;;;;21.34;53.10;102028.63;5111784;27;4152;-58
2022/11/26 05:59:25;;;;;;;;;;;;;;;21.33;53.32;102036.53;5103931;27;4103;-58
2022/11/26 06:01:52;;;;;;;;;;;;;;;21.33;53.04;102036.53;5111234;27;4007;-57
2022/11/26 06:04:18;;;;;;;;;;;;;;;21.34;53.30;102035.16;5103129;27;5176;-59
2022/11/26 06:06:45;;;;;;;;;;;;;;;21.34;53.24;102043.78;5099107;27;5210;-58
2022/11/26 06:09:11;;;;;;;;;;;;;;;21.34;53.16;102040.16;5096343;27;4434;-58
2022/11/26 06:11:37;;;;;;;;;;;;;;;21.34;53.06;102043.03;5107492;27;4080;-58
2022/11/26 06:14:04;;;;;;;;;;;;;;;21.33;53.28;102050.94;5101637;27;5210;-58
2022/11/26 06:16:30;;;;;;;;;;;;;;;21.33;53.33;102059.59;5108563;27;4060;-57
2022/11/26 06:18:58;;;;;;;;;;;;;;;21.32;53.18;102058.06;5099046;27;4020;-58
2022/11/26 06:21:24;;;;;;;;;;;;;;;21.33;53.14;102062.47;5096005;27;4187;-58
2022/11/26 06:23:50;;;;;;;;;;;;;;;21.34;53.26;102066.84;5105431;27;4145;-58
2022/11/26 06:26:24;;;;;;;;;;;;;;;21.34;53.17;102078.38;5092852;27;4146;-58
2022/11/26 06:28:50;;;;;;;;;;;;;;;21.34;52.91;102074.75;5101814;27;4162;-58
2022/11/26 06:31:17;;;;;;;;;;;;;;;21.37;53.11;102087.13;5098534;27;5130;-58
2022/11/26 06:33:43;;;;;;;;;;;;;;;21.38;53.14;102088.66;5097207;27;4107;-58
2022/11/26 06:36:10;;;;;;;;;;;;;;;21.37;53.03;102085.00;5093469;27;4192;-58
2022/11/26 06:38:36;;;;;;;;;;;;;;;21.38;52.90;102088.66;5091068;27;4370;-58
2022/11/26 06:41:04;;;;;;;;;;;;;;;21.37;53.07;102098.66;5097514;27;4086;-58
2022/11/26 06:43:30;;;;;;;;;;;;;;;21.37;53.25;102096.53;5091482;27;5195;-58
2022/11/26 06:46:06;;;;;;;;;;;;;;;21.37;53.06;102098.66;5099677;28;5010;-57
2022/11/26 06:48:33;;;;;;;;;;;;;;;21.36;53.14;102114.47;5092673;27;4121;-57
2022/11/26 06:51:06;;;;;;;;;;;;;;;21.36;53.25;102126.72;5105673;27;4188;-58
2022/11/26 06:53:32;;;;;;;;;;;;;;;21.34;53.40;102112.94;5102124;27;5277;-58
2022/11/26 06:55:59;;;;;;;;;;;;;;;21.33;53.27;102125.13;5106557;27;4157;-58
2022/11/26 06:58:26;;;;;;;;;;;;;;;21.33;53.24;102128.00;5103254;27;5286;-58
2022/11/26 07:00:52;;;;;;;;;;;;;;;21.33;53.30;102139.50;5099892;27;4174;-58
2022/11/26 07:03:19;;;;;;;;;;;;;;;21.33;53.26;102133.75;5103602;27;5595;-58
2022/11/26 07:05:50;;;;;;;;;;;;;;;21.33;53.06;102137.38;5112135;27;4049;-58
2022/11/26 07:08:17;;;;;;;;;;;;;;;21.33;52.94;102143.16;5105416;27;5645;-58
2022/11/26 07:10:43;;;;;;;;;;;;;;;21.36;53.14;102149.03;5096979;27;4128;-58
2022/11/26 07:13:14;;;;;;;;;;;;;;;21.36;52.83;102149.03;5111593;27;4102;-58
2022/11/26 07:15:40;;;;;;;;;;;;;;;21.37;52.96;102154.16;5108420;27;4103;-58
2022/11/26 07:18:07;;;;;;;;;;;;;;;21.38;52.83;102146.28;5104304;27;5388;-58
2022/11/26 07:20:34;;;;;;;;;;;;;;;21.37;52.85;102145.50;5111088;27;4146;-58
2022/11/26 07:23:01;;;;;;;;;;;;;;;21.40;52.95;102155.06;5104469;27;4229;-58
2022/11/26 07:25:28;;;;;;;;;;;;;;;21.39;52.98;102154.28;5102864;27;4144;-58
2022/11/26 07:27:55;;;;;;;;;;;;;;;21.39;52.79;102159.31;5110766;27;4628;-58
2022/11/26 07:30:21;;;;;;;;;;;;;;;21.40;53.02;102160.81;5107577;27;4486;-58
2022/11/26 07:32:47;;;;;;;;;;;;;;;21.39;52.79;102165.06;5107855;27;4289;-58
2022/11/26 07:35:16;;;;;;;;;;;;;;;21.37;52.70;102162.06;5109155;27;4899;-58
2022/11/26 07:37:43;;;;;;;;;;;;;;;21.38;52.93;102161.44;5099913;27;4178;-57
2022/11/26 07:40:09;;;;;;;;;;;;;;;21.40;52.80;102172.34;5100526;27;5229;-58
2022/11/26 07:42:36;;;;;;;;;;;;;;;21.40;52.89;102178.13;5106062;27;4157;-58
2022/11/26 07:45:03;;;;;;;;;;;;;;;21.39;52.81;102177.34;5104589;27;4012;-58
2022/11/26 07:47:29;;;;;;;;;;;;;;;21.40;52.79;102181.00;5107521;27;4154;-58
2022/11/26 07:49:56;;;;;;;;;;;;;;;21.40;52.89;102181.78;5107097;27;4197;-58
2022/11/26 07:52:22;;;;;;;;;;;;;;;21.39;52.70;102186.00;5097868;27;4586;-58
2022/11/26 07:54:48;;;;;;;;;;;;;;;21.46;52.48;102182.16;5103203;27;3927;-58
2022/11/26 07:57:15;;;;;;;;;;;;;;;21.43;52.86;102188.41;5104707;27;4275;-58
2022/11/26 07:59:41;;;;;;;;;;;;;;;21.42;52.95;102187.66;5110770;27;4436;-58
2022/11/26 08:02:10;;;;;;;;;;;;;;;21.42;52.81;102192.69;5101230;27;4229;-58
2022/11/26 08:04:37;;;;;;;;;;;;;;;21.44;53.13;102195.66;5094483;27;4449;-58
2022/11/26 08:07:03;;;;;;;;;;;;;;;21.43;53.42;102194.19;5106763;27;5349;-59
2022/11/26 08:09:30;;;;;;;;;;;;;;;21.44;53.54;102195.66;5108629;27;4102;-59
2022/11/26 08:11:56;;;;;;;;;;;;;;;21.43;53.59;102205.69;5110925;27;4010;-58
2022/11/26 08:14:22;;;;;;;;;;;;;;;21.43;53.23;102208.59;5108499;27;4104;-59
2022/11/26 08:16:49;;;;;;;;;;;;;;;21.42;53.41;102212.84;5099130;27;4084;-59
2022/11/26 08:19:15;;;;;;;;;;;;;;;21.41;53.45;102214.22;5107649;27;4178;-59
2022/11/26 08:21:41;;;;;;;;;;;;;;;21.40;53.27;102212.69;5108275;27;5278;-59
2022/11/26 08:24:14;;;;;;;;;;;;;;;21.40;53.28;102215.56;5114453;27;4157;-58
2022/11/26 08:26:41;;;;;;;;;;;;;;;21.39;53.47;102214.06;5111133;27;4088;-58
2022/11/26 08:29:09;;;;;;;;;;;;;;;21.38;53.49;102219.06;5111676;27;4018;-59
2022/11/26 08:31:39;;;;;;;;;;;;;;;21.36;53.16;102216.06;5099949;27;4100;-57
2022/11/26 08:34:12;;;;;;;;;;;;;;;21.40;53.58;102227.09;5112279;27;4028;-60
2022/11/26 08:36:39;;;;;;;;;;;;;;;21.38;53.35;102226.97;5113659;27;5304;-58
2022/11/26 08:39:05;;;;;;;;;;;;;;;21.37;53.94;102231.97;5111023;27;4186;-59
2022/11/26 08:41:31;;;;;;;;;;;;;;;21.36;54.19;102224.69;5112158;27;5284;-59
2022/11/26 08:43:58;;;;;;;;;;;;;;;21.37;54.32;102231.22;5117674;27;4078;-58
2022/11/26 08:46:37;;;;;;;;;;;;;;;21.40;54.26;102241.50;5112922;27;5259;-58
2022/11/26 08:49:03;;;;;;;;;;;;;;;21.39;54.23;102240.00;5113989;27;4018;-59
2022/11/26 08:51:30;;;;;;;;;;;;;;;21.40;54.09;102241.50;5114293;27;4125;-59
2022/11/26 08:53:56;;;;;;;;;;;;;;;21.40;54.75;102241.50;5115532;27;4078;-59
2022/11/26 08:56:22;;;;;;;;;;;;;;;21.39;54.93;102252.25;5119498;27;4188;-59
2022/11/26 08:58:50;;;;;;;;;;;;;;;21.38;55.04;102255.78;5112959;27;4181;-59
2022/11/26 09:01:17;;;;;;;;;;;;;;;21.38;54.68;102256.53;5114922;27;4028;-58
2022/11/26 09:03:46;;;;;;;;;;;;;;;21.41;55.06;102254.56;5112250;27;4183;-58
2022/11/26 09:06:12;;;;;;;;;;;;;;;21.40;55.61;102264.56;5110796;27;4108;-58
2022/11/26 09:11:23;;;;;;;;;;;;;;;21.40;55.09;102273.22;5110948;27;4100;-58
2022/11/26 09:13:50;;;;;;;;;;;;;;;21.40;55.54;102274.00;5110981;27;5195;-58
2022/11/26 09:16:16;;;;;;;;;;;;;;;21.40;55.55;102271.09;5108721;27;4146;-58
2022/11/26 09:18:42;;;;;;;;;;;;;;;21.40;55.28;102270.34;5110697;27;5461;-58
2022/11/26 09:21:09;;;;;;;;;;;;;;;21.41;55.78;102268.97;5113753;27;5183;-58
2022/11/26 09:23:35;;;;;;;;;;;;;;;21.40;55.94;102279.75;5111352;27;4097;-58
2022/11/26 09:26:01;;;;;;;;;;;;;;;21.40;55.82;102274.00;5101916;27;4094;-58
2022/11/26 09:28:28;;;;;;;;;;;;;;;21.41;56.19;102289.16;5115785;27;5274;-58
2022/11/26 09:30:57;;;;;;;;;;;;;;;21.40;56.11;102287.63;5108777;27;4091;-58
2022/11/26 09:33:24;;;;;;;;;;;;;;;21.42;55.83;102296.44;5089959;27;4323;-61
2022/11/26 09:35:50;;;;;;;;;;;;;;;21.44;55.80;102303.06;5112242;27;5316;-62
2022/11/26 09:38:16;;;;;;;;;;;;;;;21.50;56.02;102300.56;5109810;27;4132;-61
2022/11/26 09:40:50;;;;;;;;;;;;;;;21.47;56.36;102303.97;5108428;27;4116;-62
2022/11/26 09:43:26;;;;;;;;;;;;;;;21.45;56.16;102306.72;5088541;27;4087;-61
2022/11/26 09:45:54;;;;;;;;;;;;;;;20.29;50.22;102306.91;5114809;27;4174;-61
2022/11/26 09:48:21;;;;;;;;;;;;;;;19.82;47.91;102308.59;5096516;27;4119;-61
2022/11/26 09:50:48;;;;;;;;;;;;;;;19.73;47.21;102315.13;5096174;27;5492;-63
2022/11/26 09:53:16;;;;;;;;;;;;;;;20.19;46.40;102328.44;5107506;27;4188;-63
2022/11/26 09:55:43;;;;;;;;;;;;;;;20.62;46.28;102314.16;5097091;28;4079;-63
2022/11/26 09:58:33;;;;;;;;;;;;;;;20.78;48.40;102326.78;5102218;27;4099;-63
2022/11/26 10:00:59;;;;;;;;;;;;;;;20.92;48.77;102318.34;5092523;27;4118;-62
2022/11/26 10:03:28;;;;;;;;;;;;;;;20.94;50.61;102324.25;5109664;27;4183;-63
2022/11/26 10:06:00;;;;;;;;;;;;;;;20.95;51.02;102330.75;5105227;27;5471;-63
2022/11/26 10:08:45;;;;;;;;;;;;;;;21.04;51.06;102327.78;5092233;27;4121;-63
2022/11/26 10:11:17;;;;;;;;;;;;;;;21.07;51.21;102332.34;5105839;27;4082;-63
2022/11/26 10:13:56;;;;;;;;;;;;;;;21.09;51.69;102328.81;5103406;27;4412;-63
2022/11/26 10:16:42;;;;;;;;;;;;;;;21.13;52.99;102331.97;5082347;28;4193;-63
2022/11/26 10:19:13;;;;;;;;;;;;;;;21.14;53.17;102333.47;5086755;28;4224;-63
2022/11/26 10:21:40;;;;;;;;;;;;;;;21.14;53.22;102327.72;5086969;28;4103;-63
2022/11/26 10:24:28;;;;;;;;;;;;;;;21.17;53.74;102332.25;5096881;28;5355;-63
2022/11/26 10:26:54;;;;;;;;;;;;;;;21.18;53.63;102330.88;5087103;27;4033;-63
2022/11/26 10:29:22;;;;;;;;;;;;;;;21.19;53.71;102332.38;5085246;28;5534;-63
2022/11/26 10:31:48;;;;;;;;;;;;;;;21.20;53.91;102333.13;5100874;27;4161;-62
2022/11/26 10:34:19;;;;;;;;;;;;;;;21.20;53.92;102331.00;5093312;27;4929;-63
2022/11/26 10:36:46;;;;;;;;;;;;;;;21.21;54.32;102344.06;5100380;27;4116;-62
2022/11/26 10:39:13;;;;;;;;;;;;;;;21.21;54.09;102340.41;5101164;28;4137;-63
2022/11/26 10:41:39;;;;;;;;;;;;;;;21.21;54.27;102344.06;5100289;27;4121;-62
2022/11/26 10:44:24;;;;;;;;;;;;;;;21.22;54.17;102339.78;5099337;28;4067;-63
2022/11/26 10:46:51;;;;;;;;;;;;;;;21.23;54.41;102349.91;5097466;28;4136;-63
2022/11/26 10:49:22;;;;;;;;;;;;;;;21.24;54.36;102351.44;5101749;28;4161;-63
2022/11/26 10:51:49;;;;;;;;;;;;;;;21.26;54.50;102354.47;5096643;28;4124;-62
2022/11/26 10:54:34;;;;;;;;;;;;;;;21.26;54.31;102348.69;5093077;28;5188;-63
2022/11/26 10:57:01;;;;;;;;;;;;;;;21.27;54.29;102355.97;5100998;28;4015;-63
2022/11/26 10:59:28;;;;;;;;;;;;;;;21.28;54.33;102357.47;5099184;27;4044;-62
2022/11/26 11:01:59;;;;;;;;;;;;;;;21.27;54.41;102353.06;5092190;28;4032;-63
2022/11/26 11:04:29;;;;;;;;;;;;;;;21.27;54.40;102355.97;5084534;28;4121;-63
2022/11/26 11:06:56;;;;;;;;;;;;;;;21.28;54.55;102354.59;5104137;28;4171;-63
2022/11/26 11:09:32;;;;;;;;;;;;;;;21.27;54.48;102355.97;5099582;28;5316;-63
2022/11/26 11:12:10;;;;;;;;;;;;;;;21.28;54.42;102351.72;5099247;28;5286;-63
2022/11/26 11:14:39;;;;;;;;;;;;;;;21.27;54.46;102355.97;5109582;28;4134;-63
2022/11/26 11:17:18;;;;;;;;;;;;;;;21.27;54.42;102355.97;5105542;28;4174;-62
2022/11/26 11:19:44;;;;;;;;;;;;;;;21.26;54.43;102354.47;5095961;28;4159;-63
2022/11/26 11:22:20;;;;;;;;;;;;;;;21.27;54.58;102364.59;5112726;28;4207;-63
2022/11/26 11:24:46;;;;;;;;;;;;;;;21.27;54.72;102364.59;5103984;28;4094;-63
2022/11/26 11:27:22;;;;;;;;;;;;;;;21.28;54.44;102366.13;5089767;28;4205;-63
2022/11/26 11:29:48;;;;;;;;;;;;;;;21.27;54.62;102361.72;5093421;28;4052;-63
2022/11/26 11:32:47;;;;;;;;;;;;;;;21.29;54.71;102370.50;5097556;28;4180;-63
2022/11/26 11:35:23;;;;;;;;;;;;;;;21.30;54.58;102363.38;5060518;27;4145;-62
2022/11/26 11:37:51;;;;;;;;;;;;;;;21.30;54.87;102359.72;5102579;27;4138;-63
2022/11/26 11:40:22;;;;;;;;;;;;;;;21.31;54.80;102370.66;5109483;27;4146;-63
2022/11/26 11:42:49;;;;;;;;;;;;;;;21.30;54.74;102366.25;5113761;27;4128;-63
2022/11/26 11:45:27;;;;;;;;;;;;;;;21.30;54.92;102374.13;5109268;27;4204;-63
2022/11/26 11:47:56;;;;;;;;;;;;;;;21.29;55.15;102370.50;5107430;27;4052;-63
2022/11/26 11:50:22;;;;;;;;;;;;;;;21.29;54.66;102367.63;5111045;27;4095;-63
2022/11/26 11:52:53;;;;;;;;;;;;;;;21.30;55.05;102377.00;5114759;27;4184;-63
2022/11/26 11:55:38;;;;;;;;;;;;;;;21.31;55.00;102381.41;5096280;27;5052;-63
2022/11/26 11:58:09;;;;;;;;;;;;;;;21.31;54.75;102378.53;5109264;27;5167;-63
2022/11/26 12:00:38;;;;;;;;;;;;;;;21.30;54.76;102377.78;5091681;27;5171;-63
2022/11/26 12:03:25;;;;;;;;;;;;;;;21.31;54.63;102387.94;5094813;27;4311;-62
2022/11/26 12:06:10;;;;;;;;;;;;;;;21.32;54.88;102386.53;5089808;27;4120;-63
2022/11/26 12:08:45;;;;;;;;;;;;;;;21.32;54.77;102371.41;5110302;27;4135;-64
2022/11/26 12:11:12;;;;;;;;;;;;;;;21.32;54.53;102380.78;5112656;27;4128;-63
2022/11/26 12:13:44;;;;;;;;;;;;;;;21.31;54.62;102382.16;5110685;27;4227;-63
2022/11/26 12:16:10;;;;;;;;;;;;;;;21.32;54.56;102386.53;5102910;27;4184;-63
2022/11/26 12:18:47;;;;;;;;;;;;;;;21.31;54.81;102385.06;5093657;27;4118;-63
2022/11/26 12:21:14;;;;;;;;;;;;;;;21.30;54.63;102383.56;5097599;27;4143;-62
2022/11/26 12:23:48;;;;;;;;;;;;;;;21.30;54.83;102382.78;5111823;27;3960;-63
2022/11/26 12:26:22;;;;;;;;;;;;;;;21.16;52.67;102384.72;5092297;27;4156;-63
2022/11/26 12:28:54;;;;;;;;;;;;;;;21.21;53.43;102390.16;5116490;27;4106;-62
2022/11/26 12:31:34;;;;;;;;;;;;;;;21.27;53.75;102379.00;5083324;27;4439;-63
2022/11/26 12:34:02;;;;;;;;;;;;;;;21.30;53.84;102382.78;5106417;27;4375;-63
2022/11/26 12:36:38;;;;;;;;;;;;;;;21.31;54.08;102385.06;5107860;27;4187;-63
2022/11/26 12:39:07;;;;;;;;;;;;;;;21.31;54.04;102393.69;5096628;27;4536;-63
2022/11/26 12:41:36;;;;;;;;;;;;;;;21.31;54.15;102385.06;5094549;27;4310;-63
2022/11/26 12:44:17;;;;;;;;;;;;;;;21.31;54.22;102384.31;5095281;27;4405;-63
2022/11/26 12:46:43;;;;;;;;;;;;;;;21.31;54.45;102387.19;5097071;28;4354;-62
2022/11/26 12:49:23;;;;;;;;;;;;;;;21.29;54.53;102387.78;5113748;27;4146;-63
2022/11/26 12:51:52;;;;;;;;;;;;;;;21.29;54.37;102387.78;5093949;27;4305;-63
2022/11/26 12:54:26;;;;;;;;;;;;;;;21.29;54.30;102387.78;5111640;27;4576;-63
2022/11/26 12:56:54;;;;;;;;;;;;;;;21.30;54.35;102385.66;5099937;27;4516;-63
2022/11/26 12:59:22;;;;;;;;;;;;;;;21.29;54.33;102390.69;5102374;27;4275;-63